Heinsburg, Canada
Current Conditions -  °F | °C
As of 4:12 AM on Friday 28 Nov 2014 (Local Time) from CYLL Reporting Station
Light Snow Light Snow  
Wind Chill: -23°   Ceiling: 700
Heat Index: -2°   Visibility: 0.75mi
Dew Point: -8°   Wind: 16mph
Humidity: 78%   Direction: 70°ENE
Pressure: 29.79"   Gusts: NA
Location:  53.77°N, 110.52°W
Report Text: CYLL 281112Z AUTO 07014KT 3/4SM -SN VV007 M19/M22 A2979 RMK PRESFR SLP153
Loading
Personal Weather Stations






























Interactive Weather Map New forecast layout! Learn more

10-Day Weather Forecast

Advertisements
Track Severe Weather on mobile